createdAt,value
2023-08-13T00:04:20.711Z,28.27
2023-08-13T00:09:23.700Z,28.33
2023-08-13T00:14:26.650Z,28.39
2023-08-13T00:19:29.015Z,28.49
2023-08-13T00:24:31.393Z,28.42
2023-08-13T00:29:35.247Z,28.12
2023-08-13T00:34:38.284Z,27.71
2023-08-13T00:39:40.710Z,27.47
2023-08-13T00:44:43.152Z,27.35
2023-08-13T00:49:46.105Z,27.33
2023-08-13T00:54:48.720Z,27.41
2023-08-13T00:59:53.017Z,27.47
2023-08-13T01:04:56.588Z,27.47
2023-08-13T01:10:30.457Z,27.52
2023-08-13T01:15:39.345Z,27.44
2023-08-13T01:20:45.486Z,27.32
2023-08-13T01:25:58.168Z,27.17
2023-08-13T01:31:15.823Z,27.02
2023-08-13T01:36:19.994Z,26.94
2023-08-13T01:41:23.498Z,26.71
2023-08-13T01:46:26.268Z,26.69
2023-08-13T01:51:29.492Z,26.71
2023-08-13T01:56:32.956Z,26.52
2023-08-13T02:01:37.211Z,26.54
2023-08-13T02:06:39.660Z,26.48
2023-08-13T02:11:42.619Z,26.55
2023-08-13T02:16:45.359Z,26.29
2023-08-13T02:21:48.750Z,26.63
2023-08-13T02:26:51.241Z,26.51
2023-08-13T02:31:54.931Z,26.64
2023-08-13T02:36:57.824Z,26.51
2023-08-13T02:42:00.243Z,26.63
2023-08-13T02:47:04.595Z,26.61
2023-08-13T02:52:07.757Z,26.58
2023-08-13T02:57:10.218Z,26.53
2023-08-13T03:02:14.673Z,26.50
2023-08-13T03:07:17.359Z,26.47
2023-08-13T03:12:20.214Z,26.34
2023-08-13T03:17:23.632Z,26.23
2023-08-13T03:22:26.393Z,26.23
2023-08-13T03:27:28.752Z,26.25
2023-08-13T03:32:32.416Z,26.28
2023-08-13T03:37:35.672Z,26.24
2023-08-13T03:42:38.545Z,26.19
2023-08-13T03:47:41.880Z,26.24
2023-08-13T03:52:44.816Z,26.11
2023-08-13T03:57:48.479Z,26.05
2023-08-13T04:02:51.849Z,25.88
2023-08-13T04:07:55.721Z,25.88
2023-08-13T04:12:58.183Z,25.86
2023-08-13T04:18:01.896Z,25.75
2023-08-13T04:23:05.406Z,25.94
2023-08-13T04:28:08.460Z,26.08
2023-08-13T04:33:15.631Z,26.43
2023-08-13T04:38:18.126Z,26.66
2023-08-13T04:43:21.669Z,27.02
2023-08-13T04:48:46.195Z,27.25
2023-08-13T04:53:52.021Z,27.36
2023-08-13T04:58:57.893Z,27.42
2023-08-13T05:04:01.384Z,27.33
2023-08-13T05:09:09.735Z,27.37
2023-08-13T05:14:14.345Z,27.56
2023-08-13T05:19:19.006Z,27.40
2023-08-13T05:24:21.808Z,27.57
2023-08-13T05:29:24.460Z,27.61
2023-08-13T05:34:28.750Z,27.72
2023-08-13T05:39:31.718Z,27.80
2023-08-13T05:44:35.006Z,27.79
2023-08-13T05:49:38.714Z,27.83
2023-08-13T05:54:41.484Z,27.79
2023-08-13T05:59:44.265Z,27.78
2023-08-13T06:04:47.233Z,27.87
2023-08-13T06:09:49.600Z,27.92
2023-08-13T06:14:54.383Z,28.06
2023-08-13T06:19:57.123Z,28.27
2023-08-13T06:25:00.584Z,28.24
2023-08-13T06:35:10.316Z,28.83
2023-08-13T06:40:12.769Z,29.08
2023-08-13T06:45:15.615Z,29.08
2023-08-13T06:50:19.410Z,29.14
2023-08-13T06:55:22.349Z,29.26
2023-08-13T07:00:31.772Z,29.43
2023-08-13T07:05:42.429Z,29.50
2023-08-13T07:10:45.359Z,29.62
2023-08-13T07:15:48.296Z,29.58
2023-08-13T07:20:50.728Z,29.65
2023-08-13T07:25:53.598Z,29.59
2023-08-13T07:30:58.231Z,29.72
2023-08-13T07:36:01.904Z,29.78
2023-08-13T07:41:05.335Z,29.70
2023-08-13T07:46:08.297Z,29.64
2023-08-13T07:51:11.541Z,29.52
2023-08-13T07:56:14.533Z,29.49
2023-08-13T08:01:19.211Z,29.33
2023-08-13T08:06:22.653Z,29.02
2023-08-13T08:11:25.114Z,29.03
2023-08-13T08:16:28.780Z,29.00
2023-08-13T08:21:32.456Z,28.88
2023-08-13T08:26:35.236Z,28.89
2023-08-13T08:31:38.282Z,28.67
2023-08-13T08:36:40.805Z,28.69
2023-08-13T08:41:47.894Z,28.68
2023-08-13T08:46:52.201Z,28.58
2023-08-13T08:51:55.211Z,28.44
2023-08-13T08:56:58.934Z,28.38
2023-08-13T09:02:04.038Z,28.32
2023-08-13T09:07:06.473Z,28.24
2023-08-13T09:12:09.502Z,28.19
2023-08-13T09:17:14.661Z,28.08
2023-08-13T09:22:18.211Z,27.89
2023-08-13T09:27:20.979Z,27.82
2023-08-13T09:32:23.473Z,27.26
2023-08-13T09:37:26.733Z,27.40
2023-08-13T09:42:33.735Z,27.17
2023-08-13T09:47:39.325Z,26.89
2023-08-13T09:52:47.273Z,26.54
2023-08-13T09:57:52.237Z,26.35
2023-08-13T10:02:54.897Z,26.21
2023-08-13T10:07:57.968Z,25.81
2023-08-13T10:13:00.705Z,25.51
2023-08-13T10:18:04.440Z,25.27
2023-08-13T10:23:09.947Z,25.15
2023-08-13T10:28:34.375Z,25.03
2023-08-13T10:33:37.807Z,24.80
2023-08-13T10:38:41.490Z,24.76
2023-08-13T10:43:44.997Z,24.60
2023-08-13T10:48:49.096Z,24.60
2023-08-13T10:53:53.454Z,24.54
2023-08-13T10:59:02.382Z,24.57
2023-08-13T11:04:05.817Z,24.47
2023-08-13T11:09:10.607Z,24.05
2023-08-13T11:14:13.352Z,23.80
2023-08-13T11:19:16.204Z,23.42
2023-08-13T11:24:18.891Z,22.61
2023-08-13T11:29:25.173Z,22.17
2023-08-13T11:34:28.718Z,21.96
2023-08-13T11:39:31.118Z,21.98
2023-08-13T11:44:33.829Z,22.21
2023-08-13T11:49:46.711Z,22.29
2023-08-13T11:54:49.286Z,22.34
2023-08-13T11:59:53.047Z,22.65
2023-08-13T12:04:55.623Z,23.22
2023-08-13T12:09:59.426Z,23.93
2023-08-13T12:15:02.319Z,24.26
2023-08-13T12:20:07.078Z,24.57
2023-08-13T12:25:10.242Z,24.68
2023-08-13T12:30:14.131Z,25.07
2023-08-13T12:35:18.744Z,25.26
2023-08-13T12:40:22.691Z,25.34
2023-08-13T12:45:25.888Z,25.38
2023-08-13T12:50:29.965Z,25.47
2023-08-13T12:55:33.013Z,25.36
2023-08-13T13:00:35.546Z,25.48
2023-08-13T13:05:39.722Z,25.19
2023-08-13T13:10:42.108Z,25.26
2023-08-13T13:15:45.681Z,25.27
2023-08-13T13:20:48.785Z,25.35
2023-08-13T13:25:51.429Z,25.38
2023-08-13T13:30:54.629Z,25.43
2023-08-13T13:35:57.306Z,25.40
2023-08-13T13:41:00.222Z,25.46
2023-08-13T13:46:02.680Z,25.51
2023-08-13T13:51:05.268Z,25.53
2023-08-13T13:56:07.754Z,25.52
2023-08-13T14:01:10.729Z,25.57
2023-08-13T14:06:13.741Z,25.57
2023-08-13T14:11:16.025Z,25.66
2023-08-13T14:16:19.263Z,25.67
2023-08-13T14:21:22.306Z,25.69
2023-08-13T14:26:24.735Z,25.67
2023-08-13T14:31:28.980Z,25.66
2023-08-13T14:36:31.459Z,25.62
2023-08-13T14:41:36.252Z,25.87
2023-08-13T14:46:39.837Z,26.04
2023-08-13T14:51:45.604Z,26.22
2023-08-13T14:56:50.343Z,26.42
2023-08-13T15:01:53.132Z,26.48
2023-08-13T15:06:55.604Z,26.55
2023-08-13T15:11:58.125Z,26.49
2023-08-13T15:17:00.465Z,26.55
2023-08-13T15:22:03.050Z,26.50
2023-08-13T15:27:06.392Z,26.46
2023-08-13T15:32:08.947Z,26.48
2023-08-13T15:37:13.010Z,26.55
2023-08-13T15:42:16.628Z,26.61
2023-08-13T15:47:19.466Z,26.49
2023-08-13T15:52:21.914Z,26.63
2023-08-13T15:57:26.285Z,26.60
2023-08-13T16:02:29.379Z,26.63
2023-08-13T16:07:31.774Z,26.50
2023-08-13T16:12:34.331Z,26.38
2023-08-13T16:17:49.364Z,26.51
2023-08-13T16:22:53.020Z,26.35
2023-08-13T16:27:58.528Z,26.30
2023-08-13T16:33:01.862Z,26.32
2023-08-13T16:38:04.970Z,26.30
2023-08-13T16:43:12.352Z,26.21
2023-08-13T16:48:17.170Z,26.05
2023-08-13T16:53:20.993Z,25.92
2023-08-13T16:58:23.281Z,25.77
2023-08-13T17:03:26.401Z,25.67
2023-08-13T17:08:29.206Z,25.65
2023-08-13T17:13:32.734Z,25.57
2023-08-13T17:18:36.872Z,25.70
2023-08-13T17:23:39.706Z,25.69
2023-08-13T17:28:42.470Z,25.54
2023-08-13T17:33:44.909Z,25.42
2023-08-13T17:38:48.142Z,25.47
2023-08-13T17:43:50.549Z,25.25
2023-08-13T17:48:53.727Z,25.29
2023-08-13T17:53:56.117Z,25.15
2023-08-13T17:58:58.886Z,25.16
2023-08-13T18:04:03.150Z,25.07
2023-08-13T18:09:06.333Z,24.93
2023-08-13T18:14:09.575Z,25.00
2023-08-13T18:19:12.010Z,25.03
2023-08-13T18:24:14.850Z,25.03
2023-08-13T18:29:17.323Z,24.87
2023-08-13T18:34:19.886Z,24.93
2023-08-13T18:39:22.448Z,24.70
2023-08-13T18:44:25.112Z,24.72
2023-08-13T18:49:27.639Z,24.74
2023-08-13T18:54:30.082Z,24.50
2023-08-13T18:59:34.016Z,24.71
2023-08-13T19:04:36.792Z,24.62
2023-08-13T19:09:39.563Z,24.70
2023-08-13T19:14:41.910Z,24.65
2023-08-13T19:19:44.522Z,24.69
2023-08-13T19:24:47.950Z,24.66
2023-08-13T19:29:51.018Z,24.67
2023-08-13T19:34:55.074Z,24.60
2023-08-13T19:39:57.821Z,24.57
2023-08-13T19:45:01.114Z,24.67
2023-08-13T19:50:07.271Z,24.59
2023-08-13T19:55:10.113Z,24.67
2023-08-13T20:00:14.341Z,24.58
2023-08-13T20:05:17.505Z,24.50
2023-08-13T20:10:20.922Z,24.21
2023-08-13T20:15:24.955Z,24.37
2023-08-13T20:20:27.349Z,24.34
2023-08-13T20:25:29.787Z,24.35
2023-08-13T20:30:32.743Z,24.28
2023-08-13T20:35:35.445Z,24.22
2023-08-13T20:40:39.074Z,24.23
2023-08-13T20:45:42.250Z,24.21
2023-08-13T20:50:44.818Z,24.19
2023-08-13T20:55:49.158Z,24.22
2023-08-13T21:00:53.139Z,24.31
2023-08-13T21:05:56.854Z,24.25
2023-08-13T21:10:59.785Z,24.43
2023-08-13T21:16:03.208Z,24.39
2023-08-13T21:21:06.321Z,24.56
2023-08-13T21:26:09.011Z,24.58
2023-08-13T21:31:12.574Z,24.64
2023-08-13T21:36:15.628Z,24.57
2023-08-13T21:41:17.984Z,24.66
2023-08-13T21:46:24.546Z,24.66
2023-08-13T21:51:27.509Z,24.77
2023-08-13T21:56:31.608Z,24.90
2023-08-13T22:01:34.666Z,24.90
2023-08-13T22:06:37.728Z,24.88
2023-08-13T22:11:40.552Z,24.95
2023-08-13T22:16:43.555Z,24.92
2023-08-13T22:21:47.596Z,24.86
2023-08-13T22:26:50.024Z,24.83
2023-08-13T22:31:53.768Z,24.69
2023-08-13T22:36:56.868Z,24.77
2023-08-13T22:41:59.775Z,24.62
2023-08-13T22:47:02.679Z,24.59
2023-08-13T22:52:10.596Z,24.61
2023-08-13T22:57:13.641Z,24.57
2023-08-13T23:02:17.202Z,24.54
2023-08-13T23:07:19.846Z,24.53
2023-08-13T23:12:22.808Z,24.44
2023-08-13T23:17:27.115Z,24.40
2023-08-13T23:22:30.605Z,24.27
2023-08-13T23:27:32.953Z,24.30
2023-08-13T23:32:35.985Z,24.27
2023-08-13T23:37:39.371Z,24.27
2023-08-13T23:42:41.834Z,24.08
2023-08-13T23:47:46.048Z,24.07
2023-08-13T23:52:48.382Z,24.06
2023-08-13T23:57:51.879Z,24.02
